Terminal Aerodrome Forecast
Issued by NWS

Home | Current Version | Previous Version | Graphics & Text | Print | Product List | Glossary On
Versions: 1 2 3 4 5 6 7 8 9 10 11 12 13 14 15 16
000
FTUS43 KMPX 012300
TAFRWF
TAF
KRWF 012334Z 0200/0224 27006KT P6SM FEW120 SCT250
     FM020200 25006KT P6SM VCSH SCT060 BKN100
     FM020700 26006KT P6SM -SHRA BKN060 OVC090
     FM021100 26007KT P6SM SCT060 BKN090
     FM021500 27012KT P6SM SCT120=

USA.gov is the U.S. government's official web portal to all federal, state and local government web resources and services.